This is the latest recevied weather packets stored in our database for station/object DW9280. If no packets are shown the sender has not sent any weather packets the latest 1 day(s).
| Time | Temp. | Humidity | Pressure | Rain* | Wind** | Luminosity | Snow |
|---|---|---|---|---|---|---|---|
| 1778074448 | 14.44° C | 51% | 1009.8 hPa | 0 mm | - | 355 W/m² | - |
| 1778073588 | 14.44° C | 50% | 1009.8 hPa | 0 mm | - | 279 W/m² | - |
| 1778072646 | 14.44° C | 52% | 1009.7 hPa | 0 mm | - | 329 W/m² | - |
| 1778071572 | 14.44° C | 52% | 1009.8 hPa | 0 mm | - | 318 W/m² | - |
| 1778069349 | 14.44° C | 54% | 1009.6 hPa | 0 mm | - | 420 W/m² | - |
| 1778068750 | 14.44° C | 54% | 1009.6 hPa | 0 mm | - | 411 W/m² | - |
| 1778067847 | 14.44° C | 55% | 1009.6 hPa | 0 mm | - | 397 W/m² | - |
| 1778066951 | 14.44° C | 54% | 1009.6 hPa | 0 mm | - | 513 W/m² | - |
| 1778064849 | 13.89° C | 59% | 1009.4 hPa | 0 mm | - | 459 W/m² | - |
| 1778064550 | 13.89° C | 60% | 1009.4 hPa | 0 mm | - | 397 W/m² | - |
| 1778064073 | 13.33° C | 64% | 1009.4 hPa | 0 mm | - | 290 W/m² | - |
| 1778063650 | 13.33° C | 64% | 1009.4 hPa | 0 mm | - | 244 W/m² | - |
| 1778063172 | 13.33° C | 62% | 1009.3 hPa | 0 mm | - | 221 W/m² | - |
| 1778062748 | 13.33° C | 61% | 1009.4 hPa | 0 mm | - | 220 W/m² | - |
| 1778061550 | 13.33° C | 65% | 1009.2 hPa | 0 mm | - | 262 W/m² | - |
| 1778060048 | 12.78° C | 75% | 1009.1 hPa | 0 mm | - | 262 W/m² | - |
| 1778059873 | 12.78° C | 76% | 1009.1 hPa | 0 mm | - | 283 W/m² | - |
| 1778059447 | 12.78° C | 76% | 1009.1 hPa | 0 mm | - | 183 W/m² | - |
| 1778058850 | 12.78° C | 77% | 1009 hPa | 0 mm | - | 104 W/m² | - |
| 1778057951 | 12.22° C | 78% | 1009 hPa | 0 mm | - | 197 W/m² | - |
| 1778057646 | 12.22° C | 77% | 1009 hPa | 0 mm | - | 109 W/m² | - |
| 1778057353 | 12.78° C | 76% | 1009 hPa | 0 mm | - | 113 W/m² | - |
| 1778056748 | 12.78° C | 75% | 1009 hPa | 0 mm | - | 137 W/m² | - |
| 1778056197 | 12.78° C | 74% | 1008.9 hPa | 0 mm | - | 302 W/m² | - |
| 1778055973 | 12.78° C | 74% | 1008.9 hPa | 0 mm | - | 443 W/m² | - |
* Rain latest hour (hover to see other rain measurements)
** Current wind speed in m/s (hover to see current wind gust speed)